createdAt,value
2022-08-22T00:01:13.553Z,100500.47
2022-08-22T00:03:16.332Z,100505.63
2022-08-22T00:06:35.348Z,100483.00
2022-08-22T00:11:52.993Z,100478.00
2022-08-22T00:17:17.434Z,100495.34
2022-08-22T00:22:54.913Z,100506.19
2022-08-22T00:27:58.457Z,100505.81
2022-08-22T00:33:05.159Z,100496.59
2022-08-22T00:38:13.923Z,100501.16
2022-08-22T00:43:23.862Z,100509.81
2022-08-22T00:48:44.249Z,100503.28
2022-08-22T00:53:50.486Z,100511.81
2022-08-22T00:59:18.033Z,100516.59
2022-08-22T01:05:03.712Z,100507.63
2022-08-22T01:10:24.650Z,100514.78
2022-08-22T01:15:29.462Z,100514.97
2022-08-22T01:20:53.477Z,100524.06
2022-08-22T01:26:26.879Z,100520.00
2022-08-22T01:31:36.891Z,100522.41
2022-08-22T01:37:04.929Z,100511.41
2022-08-22T01:42:07.518Z,100515.97
2022-08-22T01:47:16.229Z,100510.31
2022-08-22T01:52:36.388Z,100531.28
2022-08-22T01:58:04.111Z,100518.53
2022-08-22T02:03:18.561Z,100516.59
2022-08-22T02:08:54.157Z,100522.13
2022-08-22T02:14:30.764Z,100515.19
2022-08-22T02:19:41.615Z,100511.75
2022-08-22T02:25:00.873Z,100524.84
2022-08-22T02:30:10.083Z,100515.31
2022-08-22T02:35:26.166Z,100525.63
2022-08-22T02:40:36.500Z,100526.56
2022-08-22T02:46:01.628Z,100527.16
2022-08-22T02:51:09.972Z,100525.09
2022-08-22T02:56:24.497Z,100525.25
2022-08-22T03:01:38.258Z,100522.38
2022-08-22T03:06:47.145Z,100519.13
2022-08-22T03:12:02.247Z,100531.25
2022-08-22T03:17:27.872Z,100533.19
2022-08-22T03:22:37.677Z,100537.09
2022-08-22T03:27:45.380Z,100536.56
2022-08-22T03:32:55.715Z,100532.00
2022-08-22T03:38:08.978Z,100540.06
2022-08-22T03:43:45.156Z,100543.53
2022-08-22T03:49:24.941Z,100541.25
2022-08-22T03:54:58.880Z,100535.34
2022-08-22T04:00:29.142Z,100537.25
2022-08-22T04:06:27.495Z,100513.19
2022-08-22T04:11:53.489Z,100533.22
2022-08-22T04:17:10.888Z,100541.53
2022-08-22T04:22:33.620Z,100545.66
2022-08-22T04:27:56.004Z,100547.63
2022-08-22T04:33:20.526Z,100550.94
2022-08-22T04:38:29.998Z,100551.72
2022-08-22T04:43:38.241Z,100560.38
2022-08-22T04:49:07.903Z,100564.56
2022-08-22T04:54:45.570Z,100561.94
2022-08-22T04:59:48.197Z,100557.78
2022-08-22T05:05:04.415Z,100559.72
2022-08-22T05:10:12.541Z,100554.34
2022-08-22T05:15:23.212Z,100573.84
2022-08-22T05:20:28.943Z,100574.31
2022-08-22T05:25:34.709Z,100575.94
2022-08-22T05:30:38.801Z,100588.41
2022-08-22T05:35:49.251Z,100584.38
2022-08-22T05:41:00.267Z,100595.06
2022-08-22T05:46:03.972Z,100595.88
2022-08-22T05:51:29.665Z,100602.22
2022-08-22T05:56:39.622Z,100600.75
2022-08-22T06:02:04.326Z,100609.72
2022-08-22T06:07:43.001Z,100606.59
2022-08-22T06:12:51.443Z,100598.97
2022-08-22T06:18:01.879Z,100602.84
2022-08-22T06:23:06.576Z,100603.84
2022-08-22T06:28:12.876Z,100603.66
2022-08-22T06:33:21.512Z,100604.94
2022-08-22T06:38:33.668Z,100603.66
2022-08-22T06:43:40.377Z,100604.13
2022-08-22T06:48:44.403Z,100606.56
2022-08-22T06:53:48.521Z,100620.06
2022-08-22T06:58:54.431Z,100616.78
2022-08-22T07:04:01.063Z,100616.13
2022-08-22T07:09:05.557Z,100623.47
2022-08-22T07:14:12.457Z,100629.16
2022-08-22T07:19:34.179Z,100629.31
2022-08-22T07:24:37.214Z,100639.81
2022-08-22T07:30:04.651Z,100644.69
2022-08-22T07:35:33.708Z,100637.41
2022-08-22T07:40:55.017Z,100633.50
2022-08-22T07:46:07.633Z,100644.88
2022-08-22T07:51:19.587Z,100655.38
2022-08-22T07:56:26.305Z,100650.53
2022-08-22T08:01:29.885Z,100648.22
2022-08-22T08:06:32.611Z,100650.53
2022-08-22T08:11:40.194Z,100633.69
2022-08-22T08:16:43.959Z,100640.66
2022-08-22T08:21:55.384Z,100633.72
2022-08-22T08:27:20.129Z,100636.28
2022-08-22T08:32:25.077Z,100633.19
2022-08-22T08:37:33.564Z,100647.25
2022-08-22T08:43:40.475Z,100649.78
2022-08-22T08:48:54.158Z,100641.50
2022-08-22T08:53:59.396Z,100640.63
2022-08-22T08:59:10.019Z,100628.13
2022-08-22T09:04:43.998Z,100628.69
2022-08-22T09:10:09.707Z,100628.41
2022-08-22T09:15:31.571Z,100635.38
2022-08-22T09:26:53.257Z,100627.91
2022-08-22T09:32:13.222Z,100625.16
2022-08-22T09:37:47.834Z,100627.91
2022-08-22T09:43:07.225Z,100632.63
2022-08-22T09:48:42.481Z,100627.28
2022-08-22T09:53:57.195Z,100629.59
2022-08-22T09:59:07.116Z,100632.66
2022-08-22T10:04:19.493Z,100628.03
2022-08-22T10:09:31.356Z,100628.63
2022-08-22T10:14:56.177Z,100631.59
2022-08-22T10:20:25.143Z,100632.78
2022-08-22T10:25:41.852Z,100633.16
2022-08-22T10:31:02.212Z,100630.31
2022-08-22T10:36:12.073Z,100624.53
2022-08-22T10:41:36.347Z,100621.28
2022-08-22T10:46:46.282Z,100619.47
2022-08-22T10:51:54.685Z,100624.00
2022-08-22T10:57:42.029Z,100624.19
2022-08-22T11:02:45.093Z,100619.56
2022-08-22T11:07:51.174Z,100624.19
2022-08-22T11:13:16.752Z,100617.53
2022-08-22T11:18:34.717Z,100613.41
2022-08-22T11:24:04.743Z,100613.84
2022-08-22T11:29:31.274Z,100636.81
2022-08-22T11:34:33.814Z,100624.94
2022-08-22T11:40:02.259Z,100629.53
2022-08-22T11:45:06.542Z,100624.44
2022-08-22T11:50:33.135Z,100633.22
2022-08-22T11:56:05.303Z,100636.56
2022-08-22T12:01:19.179Z,100640.31
2022-08-22T12:06:46.732Z,100644.84
2022-08-22T12:11:58.841Z,100626.00
2022-08-22T12:17:51.006Z,100624.75
2022-08-22T12:23:13.872Z,100625.97
2022-08-22T12:28:41.135Z,100619.94
2022-08-22T12:34:23.502Z,100607.56
2022-08-22T12:39:41.131Z,100605.38
2022-08-22T12:45:22.160Z,100602.44
2022-08-22T12:50:31.520Z,100603.34
2022-08-22T12:55:52.514Z,100607.06
2022-08-22T13:01:00.933Z,100606.00
2022-08-22T13:06:38.059Z,100598.41
2022-08-22T13:11:41.893Z,100593.59
2022-08-22T13:16:49.144Z,100589.31
2022-08-22T13:22:08.622Z,100591.28
2022-08-22T13:27:29.869Z,100598.09
2022-08-22T13:32:40.282Z,100606.75
2022-08-22T13:38:00.780Z,100602.63
2022-08-22T13:43:09.727Z,100605.03
2022-08-22T13:48:13.960Z,100605.50
2022-08-22T13:54:00.358Z,100604.63
2022-08-22T13:59:05.782Z,100599.94
2022-08-22T14:04:36.021Z,100592.50
2022-08-22T14:09:54.333Z,100594.94
2022-08-22T14:15:03.645Z,100596.56
2022-08-22T14:20:31.981Z,100595.50
2022-08-22T14:25:38.139Z,100590.19
2022-08-22T14:31:07.305Z,100596.00
2022-08-22T14:36:49.045Z,100591.53
2022-08-22T14:41:59.458Z,100581.69
2022-08-22T14:47:32.331Z,100588.03
2022-08-22T14:52:40.689Z,100581.06
2022-08-22T14:57:55.722Z,100577.53
2022-08-22T15:03:15.073Z,100592.91
2022-08-22T15:08:30.926Z,100581.63
2022-08-22T15:13:34.236Z,100582.38
2022-08-22T15:18:37.056Z,100575.19
2022-08-22T15:23:46.955Z,100571.47
2022-08-22T15:28:56.625Z,100580.09
2022-08-22T15:34:12.913Z,100581.19
2022-08-22T15:39:34.015Z,100572.34
2022-08-22T15:44:44.307Z,100572.47
2022-08-22T15:49:58.288Z,100578.38
2022-08-22T15:55:24.128Z,100565.47
2022-08-22T16:00:33.310Z,100567.50
2022-08-22T16:05:55.428Z,100556.00
2022-08-22T16:11:03.967Z,100555.44
2022-08-22T16:16:27.496Z,100562.22
2022-08-22T16:21:30.053Z,100572.63
2022-08-22T16:26:32.661Z,100589.25
2022-08-22T16:31:46.977Z,100594.97
2022-08-22T16:37:15.601Z,100602.13
2022-08-22T16:42:24.178Z,100602.59
2022-08-22T16:47:41.790Z,100596.91
2022-08-22T16:52:56.355Z,100605.25
2022-08-22T16:58:06.420Z,100594.03
2022-08-22T17:03:18.371Z,100598.34
2022-08-22T17:08:55.144Z,100604.16
2022-08-22T17:14:22.294Z,100612.53
2022-08-22T17:19:27.507Z,100602.31
2022-08-22T17:24:41.692Z,100624.22
2022-08-22T17:30:28.892Z,100627.00
2022-08-22T17:35:55.070Z,100633.88
2022-08-22T17:41:26.633Z,100644.44
2022-08-22T17:46:46.597Z,100646.22
2022-08-22T17:51:57.613Z,100651.16
2022-08-22T17:57:13.133Z,100649.47
2022-08-22T18:02:24.994Z,100647.94
2022-08-22T18:07:53.613Z,100649.66
2022-08-22T18:13:20.281Z,100643.03
2022-08-22T18:18:40.096Z,100648.63
2022-08-22T18:23:45.928Z,100663.03
2022-08-22T18:28:55.706Z,100663.72
2022-08-22T18:34:21.142Z,100658.38
2022-08-22T18:39:42.411Z,100663.13
2022-08-22T18:44:45.915Z,100670.97
2022-08-22T18:49:54.643Z,100674.09
2022-08-22T18:55:22.494Z,100682.38
2022-08-22T19:00:41.093Z,100663.41
2022-08-22T19:06:08.404Z,100667.75
2022-08-22T19:11:19.503Z,100666.25
2022-08-22T19:16:36.828Z,100671.91
2022-08-22T19:21:58.164Z,100673.53
2022-08-22T19:27:18.501Z,100681.81
2022-08-22T19:32:50.049Z,100686.00
2022-08-22T19:38:03.893Z,100685.44
2022-08-22T19:43:31.731Z,100689.34
2022-08-22T19:48:50.207Z,100686.06
2022-08-22T19:53:53.265Z,100694.66
2022-08-22T19:59:20.510Z,100683.19
2022-08-22T20:04:55.181Z,100695.19
2022-08-22T20:10:14.623Z,100685.13
2022-08-22T20:15:23.095Z,100669.28
2022-08-22T20:20:33.984Z,100673.97
2022-08-22T20:25:45.601Z,100677.22
2022-08-22T20:30:50.303Z,100685.84
2022-08-22T20:35:56.318Z,100674.94
2022-08-22T20:41:38.203Z,100680.31
2022-08-22T20:46:44.007Z,100671.19
2022-08-22T20:51:57.631Z,100666.03
2022-08-22T20:57:20.131Z,100664.69
2022-08-22T21:02:26.711Z,100669.81
2022-08-22T21:08:06.029Z,100680.03
2022-08-22T21:13:11.499Z,100674.84
2022-08-22T21:18:24.888Z,100668.19
2022-08-22T21:23:27.251Z,100668.63
2022-08-22T21:28:38.232Z,100658.91
2022-08-22T21:33:46.259Z,100656.06
2022-08-22T21:38:55.107Z,100650.34
2022-08-22T21:43:57.608Z,100640.69
2022-08-22T21:49:05.027Z,100650.66
2022-08-22T21:54:21.443Z,100638.34
2022-08-22T21:59:51.401Z,100634.06
2022-08-22T22:05:00.752Z,100628.09
2022-08-22T22:10:05.861Z,100616.34
2022-08-22T22:15:09.692Z,100621.59
2022-08-22T22:20:15.354Z,100609.44
2022-08-22T22:25:40.573Z,100610.06
2022-08-22T22:30:43.551Z,100597.72
2022-08-22T22:35:46.075Z,100604.91
2022-08-22T22:40:48.709Z,100599.38
2022-08-22T22:45:51.459Z,100594.16
2022-08-22T22:50:54.810Z,100592.38
2022-08-22T22:55:59.974Z,100605.72
2022-08-22T23:01:24.198Z,100605.28
2022-08-22T23:06:28.578Z,100592.97
2022-08-22T23:11:31.664Z,100591.16
2022-08-22T23:16:37.271Z,100585.50
2022-08-22T23:21:40.570Z,100584.03
2022-08-22T23:26:43.630Z,100577.47
2022-08-22T23:31:55.280Z,100583.31
2022-08-22T23:37:01.455Z,100583.09
2022-08-22T23:42:04.396Z,100569.97
2022-08-22T23:47:07.746Z,100565.56
2022-08-22T23:52:12.621Z,100562.31
2022-08-22T23:57:15.385Z,100566.69
